CheckWX is a tool to help pilots better visualize weather data.  It is not intended as a substitute for an official pre-flight weather briefing.

20:23:32 UTC

KTCY METAR
Tracy Municipal Airport
Tracy, California, USA
Current

29 mins ago

KTCY 231955Z AUTO 34011G16KT 10SM CLR 28/07 A2999 RMK A01
Observed
Apr-23 @ 19:55 UTC
Wind
  • 340° at 11 KTS
  • Gusting to 16 KTS
Visibility
10 SM
Flight Rules
VFR
Cloud Levels
  • Clear skies
Temperature
28°C / 82°F
Dewpoint
C / 45°F
Humidity
26%
Altimeter
29.99" Hg
Pressure
1015.62 hPa
Previous

49 mins ago

KTCY 231935Z AUTO 33009G15KT 10SM CLR 27/08 A2999 RMK A01
Observed
Apr-23 @ 19:35 UTC
Wind
  • 330° at 9 KTS
  • Gusting to 15 KTS
Visibility
10 SM
Flight Rules
VFR
Cloud Levels
  • Clear skies
Temperature
27°C / 81°F
Dewpoint
C / 46°F
Humidity
30%
Altimeter
29.99" Hg
Pressure
1015.62 hPa
Previous

1 hour ago

KTCY 231915Z AUTO 33011G16KT 10SM CLR 27/07 A2999 RMK A01
Observed
Apr-23 @ 19:15 UTC
Wind
  • 330° at 11 KTS
  • Gusting to 16 KTS
Visibility
10 SM
Flight Rules
VFR
Cloud Levels
  • Clear skies
Temperature
27°C / 81°F
Dewpoint
C / 45°F
Humidity
28%
Altimeter
29.99" Hg
Pressure
1015.62 hPa